Terminal Aerodrome Forecast
Issued by NWS

Home | Current Version | Previous Version | Text Only | Print | Product List | Glossary Off
Versions: 1 2 3 4 5 6 7 8 9 10 11 12

422
FTUS43 KICT 231123
TAFCNU
TAF
KCNU 231123Z 2312/2412 10008KT P6SM VCTS SCT060CB BKN120
      TEMPO 2312/2314 -SHRA BKN060
     FM231500 VRB05KT P6SM BKN060
     FM232000 07005KT P6SM SCT250
     FM240000 VRB05KT P6SM SCT250=

USA.gov is the U.S. government's official web portal to all federal, state and local government web resources and services.